Hesperides — EANN — position and weather

sailwx.info

Track history (hours):
 
Tides and Currents Weather Stations Pressure Air Temp Water Temp Dewpoint Dewpoint Depression Visibility Wind Speed Wind Dir Waves Ship Positions

Hesperides

Last reported at 2017-Jun-23 06:35 UTC. Time now 2017-Jun-23 17:28 UTC.
Position N 30°25' W 009°38'.

Length 122 m; draft 6.4 m.

Type: Tanker. MMSI: 224462000.

Date/timePositionNaut miles runAvg speedWind from/ knotsBaromVisibWave heightAir tempDewpointWater temp
2017-Jun-23 06:35N 30°25' W 009°38'0 0.0
2017-Jun-23 06:23N 30°25' W 009°38'0 0.0
2017-Jun-23 05:53N 30°25' W 009°38'0 0.0
2017-Jun-23 05:20N 30°25' W 009°38'0 0.0
2017-Jun-23 01:09N 30°25' W 009°38'0 0.0
2017-Jun-23 00:58N 30°25' W 009°38'0 0.0
2017-Jun-22 23:48N 30°25' W 009°38'0 0.0
2017-Jun-22 23:26N 30°25' W 009°38'0 0.0
2017-Jun-22 20:38N 30°25' W 009°38'0 0.0
2017-Jun-22 19:17N 30°25' W 009°38'0 0.0
2017-Jun-22 18:58N 30°25' W 009°38'0 0.0
2017-Jun-22 18:24N 30°25' W 009°38'0 0.0
2017-Jun-22 17:52N 30°25' W 009°38'0 0.0
2017-Jun-22 17:30N 30°25' W 009°38'0 0.0
2017-Jun-22 17:00N 30°25' W 009°38'0 0.0
2017-Jun-22 16:30N 30°25' W 009°38'0 0.1
2017-Jun-22 15:55N 30°25' W 009°38'1 2.2
2017-Jun-22 15:30N 30°25' W 009°38'2 3.2
2017-Jun-22 15:00N 30°25' W 009°40'2 2.2
2017-Jun-22 14:13N 30°26' W 009°41'0 0.0
2017-Jun-22 12:19N 30°26' W 009°42'0 0.0
2017-Jun-22 11:46N 30°26' W 009°42'0 0.0
2017-Jun-22 11:28N 30°26' W 009°42'0 0.0
2017-Jun-22 10:46N 30°26' W 009°42'0 0.0
2017-Jun-22 10:16N 30°26' W 009°42'0 0.0
2017-Jun-22 09:49N 30°26' W 009°42'0 0.0
2017-Jun-22 09:19N 30°26' W 009°42'0 0.0
2017-Jun-22 08:52N 30°26' W 009°42'0 0.0
2017-Jun-22 08:04N 30°26' W 009°42'0 0.1
2017-Jun-22 07:46N 30°26' W 009°42'0 0.0
2017-Jun-22 07:22N 30°26' W 009°42'0 0.0
2017-Jun-22 06:52N 30°26' W 009°42'0 0.0
2017-Jun-22 06:22N 30°26' W 009°42'0 0.0
2017-Jun-22 05:49N 30°26' W 009°42'0 0.0
2017-Jun-22 05:22N 30°26' W 009°42'0 0.0
2017-Jun-22 04:52N 30°26' W 009°42'0 0.0
2017-Jun-22 04:10N 30°26' W 009°42'0 0.0
2017-Jun-22 03:40N 30°26' W 009°42'0 0.0
2017-Jun-22 01:55N 30°26' W 009°42'0 0.0
2017-Jun-22 01:30N 30°26' W 009°42'0 0.0
2017-Jun-22 01:00N 30°26' W 009°42'0 0.0
2017-Jun-22 00:30N 30°26' W 009°42'0 0.0
2017-Jun-21 23:58N 30°26' W 009°42'0 0.0
2017-Jun-21 23:28N 30°26' W 009°42'0 0.0
2017-Jun-21 23:00N 30°26' W 009°42'0 0.0
2017-Jun-21 22:31N 30°26' W 009°42'0 0.0
2017-Jun-21 22:01N 30°26' W 009°42'0 0.0
2017-Jun-21 21:30N 30°26' W 009°42'0 0.0
2017-Jun-21 21:01N 30°26' W 009°42'0 0.0
2017-Jun-21 20:30N 30°26' W 009°42'0 0.0
2017-Jun-21 20:00N 30°26' W 009°42'0 0.0
2017-Jun-21 19:31N 30°26' W 009°42'0 0.1
2017-Jun-21 19:00N 30°26' W 009°42'0 0.2
2017-Jun-21 18:30N 30°26' W 009°41'0 0.1
2017-Jun-21 18:01N 30°26' W 009°41'0 0.0
2017-Jun-21 17:31N 30°26' W 009°41'0 0.0
2017-Jun-21 17:00N 30°26' W 009°41'0 0.0
2017-Jun-21 16:30N 30°26' W 009°41'0 0.0
2017-Jun-21 16:00N 30°26' W 009°41'0 0.0
2017-Jun-21 15:30N 30°26' W 009°41'0 0.0
2017-Jun-21 14:59N 30°26' W 009°42'0 0.0
2017-Jun-21 14:30N 30°26' W 009°42'0 0.0
2017-Jun-21 13:26N 30°26' W 009°42'0 0.2
2017-Jun-21 13:00N 30°26' W 009°42'2 2.8
2017-Jun-21 12:09N 30°25' W 009°44'110.4
2017-Jun-21 12:00N 30°25' W 009°46'610.2
2017-Jun-21 11:22N 30°24' W 009°53'510.1
2017-Jun-21 10:53N 30°24' W 009°59'4 9.8
2017-Jun-21 10:29N 30°24' W 010°03'5 9.7
2017-Jun-21 09:57N 30°23' W 010°09'4 9.8
2017-Jun-21 09:31N 30°21' W 010°14'5 9.7
2017-Jun-21 08:59N 30°19' W 010°19'7 9.5
2017-Jun-21 08:14N 30°15' W 010°26'4 9.5
2017-Jun-21 07:47N 30°13' W 010°31'5 9.4
2017-Jun-21 07:16N 30°11' W 010°36'3 9.6
2017-Jun-21 06:57N 30°10' W 010°39'8 9.8
2017-Jun-21 06:08N 30°06' W 010°47'1 9.8
2017-Jun-21 06:00N 30°06' W 010°49'13 9.6
2017-Jun-21 04:37N 30°00' W 011°02'1 9.5
2017-Jun-21 04:31N 29°60' W 011°04'5 9.5
2017-Jun-21 04:00N 29°57' W 011°08'5 9.6
2017-Jun-21 03:30N 29°55' W 011°14'5 9.5
2017-Jun-21 03:00N 29°53' W 011°19'5 9.5
2017-Jun-21 02:29N 29°51' W 011°24'6 9.5
2017-Jun-21 01:53N 29°49' W 011°30'4 9.6
2017-Jun-21 01:29N 29°48' W 011°34'5 9.5
2017-Jun-21 01:00N 29°46' W 011°39'5 9.5
2017-Jun-21 00:30N 29°44' W 011°43'5 9.6
2017-Jun-21 00:00N 29°41' W 011°48'5 9.6
2017-Jun-20 23:28N 29°39' W 011°54'5 9.6
2017-Jun-20 22:59N 29°37' W 011°58'7 9.3
2017-Jun-20 22:11N 29°33' W 012°06'2 9.1
2017-Jun-20 22:00N 29°33' W 012°07'5 9.0
2017-Jun-20 21:29N 29°30' W 012°12'39 9.1
2017-Jun-20 17:15N 29°14' W 012°52'4 9.5
2017-Jun-20 16:50N 29°12' W 012°56'3 9.6
2017-Jun-20 16:30N 29°10' W 012°59'5 9.5
2017-Jun-20 16:00N 29°08' W 013°04'17 8.7
2017-Jun-20 14:01N 28°56' W 013°19'6 8.7
2017-Jun-20 13:19N 28°51' W 013°23'19 9.1
2017-Jun-20 11:17N 28°36' W 013°34'3 9.7
2017-Jun-20 10:57N 28°33' W 013°36'28 9.7
2017-Jun-20 08:08N 28°12' W 013°56'1 9.5
2017-Jun-20 07:59N 28°11' W 013°57'4 9.4
2017-Jun-20 07:30N 28°09' W 014°02'5 9.3
2017-Jun-20 07:00N 28°07' W 014°06'6 9.3
2017-Jun-20 06:25N 28°05' W 014°12'6 9.5
2017-Jun-20 05:46N 28°02' W 014°18'3 9.0
2017-Jun-20 05:29N 28°01' W 014°21'4 9.5
2017-Jun-20 05:00N 28°01' W 014°26'5 9.2
2017-Jun-20 04:30N 28°01' W 014°31'4 9.0
2017-Jun-20 04:00N 28°01' W 014°37'5 9.0
2017-Jun-20 03:30N 28°01' W 014°42'5 9.2
2017-Jun-20 03:00N 28°02' W 014°47'5 9.2
2017-Jun-20 02:30N 28°02' W 014°52'5 9.4
2017-Jun-20 02:00N 28°03' W 014°57'5 9.2
2017-Jun-20 01:30N 28°03' W 015°02'4 8.7
2017-Jun-20 01:00N 28°02' W 015°07'4 9.0
2017-Jun-20 00:30N 28°01' W 015°12'5 9.2
2017-Jun-20 00:00N 27°60' W 015°17'4 8.9
2017-Jun-19 23:30N 27°58' W 015°22'1 0.0
2017-Jun-19 04:44N 27°59' W 015°23'0 0.0
2017-Jun-19 04:30N 27°59' W 015°23'0 0.8
2017-Jun-19 04:00N 27°59' W 015°22'1 1.9
2017-Jun-19 03:30N 27°59' W 015°21'1 2.4
2017-Jun-19 03:00N 27°58' W 015°20'2 4.0
2017-Jun-19 02:30N 27°56' W 015°19'3 6.9
2017-Jun-19 02:00N 27°60' W 015°20'4 7.5
2017-Jun-19 01:30N 27°56' W 015°19'0 0.1
2017-Jun-19 01:00N 27°56' W 015°19'3 6.7
2017-Jun-19 00:30N 27°60' W 015°19'3 5.7
2017-Jun-19 00:00N 27°57' W 015°19'1 2.2
2017-Jun-18 23:30N 27°58' W 015°19'1 2.6
2017-Jun-18 23:00N 27°56' W 015°19'5 9.5
2017-Jun-18 22:30N 28°01' W 015°20'5 9.1
2017-Jun-18 22:00N 28°06' W 015°22'4 7.7
2017-Jun-18 21:30N 28°08' W 015°25'1 0.1
2017-Jun-18 13:58N 28°09' W 015°25'2 4.1
2017-Jun-18 13:30N 28°07' W 015°24'4 8.6
2017-Jun-18 13:00N 28°11' W 015°22'510.1
2017-Jun-18 12:30N 28°14' W 015°28'510.2
2017-Jun-18 12:00N 28°15' W 015°33'510.0
2017-Jun-18 11:30N 28°17' W 015°38'5 9.9
2017-Jun-18 11:00N 28°19' W 015°44'5 9.7
2017-Jun-18 10:30N 28°20' W 015°49'5 9.6
2017-Jun-18 10:00N 28°22' W 015°54'5 9.7
2017-Jun-18 09:30N 28°23' W 015°59'510.0
2017-Jun-18 08:59N 28°25' W 016°05'7 9.0
2017-Jun-18 08:12N 28°28' W 016°12'  
2017-Jun-14 12:01N 28°27' W 016°15'0 7.8
2017-Jun-14 12:00N 28°27' W 016°14'3 4.4
2017-Jun-14 11:19N 28°28' W 016°11'0 1.3
2017-Jun-14 10:57N 28°28' W 016°11'0 0.7
2017-Jun-14 10:30N 28°28' W 016°11'5 9.2
2017-Jun-14 10:00N 28°27' W 016°06'5 9.3
2017-Jun-14 09:30N 28°25' W 016°01'4 8.9
2017-Jun-14 09:00N 28°24' W 015°56'5 9.2
2017-Jun-14 08:30N 28°22' W 015°51'5 9.1
2017-Jun-14 08:00N 28°21' W 015°46'4 8.9
2017-Jun-14 07:30N 28°21' W 015°41'4 8.8
2017-Jun-14 07:00N 28°19' W 015°37'4 9.0
2017-Jun-14 06:30N 28°18' W 015°32'4 8.9
2017-Jun-14 06:00N 28°16' W 015°27'5 9.1
2017-Jun-14 05:30N 28°15' W 015°22'4 8.9
2017-Jun-14 05:00N 28°13' W 015°17'4 8.8
2017-Jun-14 04:30N 28°12' W 015°13'4 8.9
2017-Jun-14 04:00N 28°11' W 015°08'4 8.9
2017-Jun-14 03:31N 28°09' W 015°03'5 9.0
2017-Jun-14 03:00N 28°08' W 014°58'5 9.0
2017-Jun-14 02:30N 28°07' W 014°53'4 9.0
2017-Jun-14 02:00N 28°06' W 014°48'5 9.1
2017-Jun-14 01:30N 28°04' W 014°43'5 9.0
2017-Jun-14 00:59N 28°03' W 014°38'5 9.3
2017-Jun-14 00:27N 28°01' W 014°33'15 9.8
2017-Jun-13 22:53N 28°01' W 014°16'4 9.9
2017-Jun-13 22:30N 28°03' W 014°12'510.1
2017-Jun-13 22:00N 28°06' W 014°07'510.3
2017-Jun-13 21:29N 28°08' W 014°02'6 9.9
2017-Jun-13 20:54N 28°11' W 013°56'  
Track history (hours):
 
Tides and Currents Weather Stations Pressure Air Temp Water Temp Dewpoint Dewpoint Depression Visibility Wind Speed Wind Dir Waves Ship Positions

Hesperides

Last reported at 2017-Jun-23 06:35 UTC. Time now 2017-Jun-23 17:28 UTC.
Position N 30°25' W 009°38'.

Length 122 m; draft 6.4 m.

Type: Tanker. MMSI: 224462000.

Date/timePositionNaut miles runAvg speedWind from/ knotsBaromVisibWave heightAir tempDewpointWater temp
2017-Jun-23 06:35N 30°25' W 009°38'0 0.0
2017-Jun-23 06:23N 30°25' W 009°38'0 0.0
2017-Jun-23 05:53N 30°25' W 009°38'0 0.0
2017-Jun-23 05:20N 30°25' W 009°38'0 0.0
2017-Jun-23 01:09N 30°25' W 009°38'0 0.0
2017-Jun-23 00:58N 30°25' W 009°38'0 0.0
2017-Jun-22 23:48N 30°25' W 009°38'0 0.0
2017-Jun-22 23:26N 30°25' W 009°38'0 0.0
2017-Jun-22 20:38N 30°25' W 009°38'0 0.0
2017-Jun-22 19:17N 30°25' W 009°38'0 0.0
2017-Jun-22 18:58N 30°25' W 009°38'0 0.0
2017-Jun-22 18:24N 30°25' W 009°38'0 0.0
2017-Jun-22 17:52N 30°25' W 009°38'0 0.0
2017-Jun-22 17:30N 30°25' W 009°38'0 0.0
2017-Jun-22 17:00N 30°25' W 009°38'0 0.0
2017-Jun-22 16:30N 30°25' W 009°38'0 0.1
2017-Jun-22 15:55N 30°25' W 009°38'1 2.2
2017-Jun-22 15:30N 30°25' W 009°38'2 3.2
2017-Jun-22 15:00N 30°25' W 009°40'2 2.2
2017-Jun-22 14:13N 30°26' W 009°41'0 0.0
2017-Jun-22 12:19N 30°26' W 009°42'0 0.0
2017-Jun-22 11:46N 30°26' W 009°42'0 0.0
2017-Jun-22 11:28N 30°26' W 009°42'0 0.0
2017-Jun-22 10:46N 30°26' W 009°42'0 0.0
2017-Jun-22 10:16N 30°26' W 009°42'0 0.0
2017-Jun-22 09:49N 30°26' W 009°42'0 0.0
2017-Jun-22 09:19N 30°26' W 009°42'0 0.0
2017-Jun-22 08:52N 30°26' W 009°42'0 0.0
2017-Jun-22 08:04N 30°26' W 009°42'0 0.1
2017-Jun-22 07:46N 30°26' W 009°42'0 0.0
2017-Jun-22 07:22N 30°26' W 009°42'0 0.0
2017-Jun-22 06:52N 30°26' W 009°42'0 0.0
2017-Jun-22 06:22N 30°26' W 009°42'0 0.0
2017-Jun-22 05:49N 30°26' W 009°42'0 0.0
2017-Jun-22 05:22N 30°26' W 009°42'0 0.0
2017-Jun-22 04:52N 30°26' W 009°42'0 0.0
2017-Jun-22 04:10N 30°26' W 009°42'0 0.0
2017-Jun-22 03:40N 30°26' W 009°42'0 0.0
2017-Jun-22 01:55N 30°26' W 009°42'0 0.0
2017-Jun-22 01:30N 30°26' W 009°42'0 0.0
2017-Jun-22 01:00N 30°26' W 009°42'0 0.0
2017-Jun-22 00:30N 30°26' W 009°42'0 0.0
2017-Jun-21 23:58N 30°26' W 009°42'0 0.0
2017-Jun-21 23:28N 30°26' W 009°42'0 0.0
2017-Jun-21 23:00N 30°26' W 009°42'0 0.0
2017-Jun-21 22:31N 30°26' W 009°42'0 0.0
2017-Jun-21 22:01N 30°26' W 009°42'0 0.0
2017-Jun-21 21:30N 30°26' W 009°42'0 0.0
2017-Jun-21 21:01N 30°26' W 009°42'0 0.0
2017-Jun-21 20:30N 30°26' W 009°42'0 0.0
2017-Jun-21 20:00N 30°26' W 009°42'0 0.0
2017-Jun-21 19:31N 30°26' W 009°42'0 0.1
2017-Jun-21 19:00N 30°26' W 009°42'0 0.2
2017-Jun-21 18:30N 30°26' W 009°41'0 0.1
2017-Jun-21 18:01N 30°26' W 009°41'0 0.0
2017-Jun-21 17:31N 30°26' W 009°41'0 0.0
2017-Jun-21 17:00N 30°26' W 009°41'0 0.0
2017-Jun-21 16:30N 30°26' W 009°41'0 0.0
2017-Jun-21 16:00N 30°26' W 009°41'0 0.0
2017-Jun-21 15:30N 30°26' W 009°41'0 0.0
2017-Jun-21 14:59N 30°26' W 009°42'0 0.0
2017-Jun-21 14:30N 30°26' W 009°42'0 0.0
2017-Jun-21 13:26N 30°26' W 009°42'0 0.2
2017-Jun-21 13:00N 30°26' W 009°42'2 2.8
2017-Jun-21 12:09N 30°25' W 009°44'110.4
2017-Jun-21 12:00N 30°25' W 009°46'610.2
2017-Jun-21 11:22N 30°24' W 009°53'510.1
2017-Jun-21 10:53N 30°24' W 009°59'4 9.8
2017-Jun-21 10:29N 30°24' W 010°03'5 9.7
2017-Jun-21 09:57N 30°23' W 010°09'4 9.8
2017-Jun-21 09:31N 30°21' W 010°14'5 9.7
2017-Jun-21 08:59N 30°19' W 010°19'7 9.5
2017-Jun-21 08:14N 30°15' W 010°26'4 9.5
2017-Jun-21 07:47N 30°13' W 010°31'5 9.4
2017-Jun-21 07:16N 30°11' W 010°36'3 9.6
2017-Jun-21 06:57N 30°10' W 010°39'8 9.8
2017-Jun-21 06:08N 30°06' W 010°47'1 9.8
2017-Jun-21 06:00N 30°06' W 010°49'13 9.6
2017-Jun-21 04:37N 30°00' W 011°02'1 9.5
2017-Jun-21 04:31N 29°60' W 011°04'5 9.5
2017-Jun-21 04:00N 29°57' W 011°08'5 9.6
2017-Jun-21 03:30N 29°55' W 011°14'5 9.5
2017-Jun-21 03:00N 29°53' W 011°19'5 9.5
2017-Jun-21 02:29N 29°51' W 011°24'6 9.5
2017-Jun-21 01:53N 29°49' W 011°30'4 9.6
2017-Jun-21 01:29N 29°48' W 011°34'5 9.5
2017-Jun-21 01:00N 29°46' W 011°39'5 9.5
2017-Jun-21 00:30N 29°44' W 011°43'5 9.6
2017-Jun-21 00:00N 29°41' W 011°48'5 9.6
2017-Jun-20 23:28N 29°39' W 011°54'5 9.6
2017-Jun-20 22:59N 29°37' W 011°58'7 9.3
2017-Jun-20 22:11N 29°33' W 012°06'2 9.1
2017-Jun-20 22:00N 29°33' W 012°07'5 9.0
2017-Jun-20 21:29N 29°30' W 012°12'39 9.1
2017-Jun-20 17:15N 29°14' W 012°52'4 9.5
2017-Jun-20 16:50N 29°12' W 012°56'3 9.6
2017-Jun-20 16:30N 29°10' W 012°59'5 9.5
2017-Jun-20 16:00N 29°08' W 013°04'17 8.7
2017-Jun-20 14:01N 28°56' W 013°19'6 8.7
2017-Jun-20 13:19N 28°51' W 013°23'19 9.1
2017-Jun-20 11:17N 28°36' W 013°34'3 9.7
2017-Jun-20 10:57N 28°33' W 013°36'28 9.7
2017-Jun-20 08:08N 28°12' W 013°56'1 9.5
2017-Jun-20 07:59N 28°11' W 013°57'4 9.4
2017-Jun-20 07:30N 28°09' W 014°02'5 9.3
2017-Jun-20 07:00N 28°07' W 014°06'6 9.3
2017-Jun-20 06:25N 28°05' W 014°12'6 9.5
2017-Jun-20 05:46N 28°02' W 014°18'3 9.0
2017-Jun-20 05:29N 28°01' W 014°21'4 9.5
2017-Jun-20 05:00N 28°01' W 014°26'5 9.2
2017-Jun-20 04:30N 28°01' W 014°31'4 9.0
2017-Jun-20 04:00N 28°01' W 014°37'5 9.0
2017-Jun-20 03:30N 28°01' W 014°42'5 9.2
2017-Jun-20 03:00N 28°02' W 014°47'5 9.2
2017-Jun-20 02:30N 28°02' W 014°52'5 9.4
2017-Jun-20 02:00N 28°03' W 014°57'5 9.2
2017-Jun-20 01:30N 28°03' W 015°02'4 8.7
2017-Jun-20 01:00N 28°02' W 015°07'4 9.0
2017-Jun-20 00:30N 28°01' W 015°12'5 9.2
2017-Jun-20 00:00N 27°60' W 015°17'4 8.9
2017-Jun-19 23:30N 27°58' W 015°22'1 0.0
2017-Jun-19 04:44N 27°59' W 015°23'0 0.0
2017-Jun-19 04:30N 27°59' W 015°23'0 0.8
2017-Jun-19 04:00N 27°59' W 015°22'1 1.9
2017-Jun-19 03:30N 27°59' W 015°21'1 2.4
2017-Jun-19 03:00N 27°58' W 015°20'2 4.0
2017-Jun-19 02:30N 27°56' W 015°19'3 6.9
2017-Jun-19 02:00N 27°60' W 015°20'4 7.5
2017-Jun-19 01:30N 27°56' W 015°19'0 0.1
2017-Jun-19 01:00N 27°56' W 015°19'3 6.7
2017-Jun-19 00:30N 27°60' W 015°19'3 5.7
2017-Jun-19 00:00N 27°57' W 015°19'1 2.2
2017-Jun-18 23:30N 27°58' W 015°19'1 2.6
2017-Jun-18 23:00N 27°56' W 015°19'5 9.5
2017-Jun-18 22:30N 28°01' W 015°20'5 9.1
2017-Jun-18 22:00N 28°06' W 015°22'4 7.7
2017-Jun-18 21:30N 28°08' W 015°25'1 0.1
2017-Jun-18 13:58N 28°09' W 015°25'2 4.1
2017-Jun-18 13:30N 28°07' W 015°24'4 8.6
2017-Jun-18 13:00N 28°11' W 015°22'510.1
2017-Jun-18 12:30N 28°14' W 015°28'510.2
2017-Jun-18 12:00N 28°15' W 015°33'510.0
2017-Jun-18 11:30N 28°17' W 015°38'5 9.9
2017-Jun-18 11:00N 28°19' W 015°44'5 9.7
2017-Jun-18 10:30N 28°20' W 015°49'5 9.6
2017-Jun-18 10:00N 28°22' W 015°54'5 9.7
2017-Jun-18 09:30N 28°23' W 015°59'510.0
2017-Jun-18 08:59N 28°25' W 016°05'7 9.0
2017-Jun-18 08:12N 28°28' W 016°12'  
2017-Jun-14 12:01N 28°27' W 016°15'0 7.8
2017-Jun-14 12:00N 28°27' W 016°14'3 4.4
2017-Jun-14 11:19N 28°28' W 016°11'0 1.3
2017-Jun-14 10:57N 28°28' W 016°11'0 0.7
2017-Jun-14 10:30N 28°28' W 016°11'5 9.2
2017-Jun-14 10:00N 28°27' W 016°06'5 9.3
2017-Jun-14 09:30N 28°25' W 016°01'4 8.9
2017-Jun-14 09:00N 28°24' W 015°56'5 9.2
2017-Jun-14 08:30N 28°22' W 015°51'5 9.1
2017-Jun-14 08:00N 28°21' W 015°46'4 8.9
2017-Jun-14 07:30N 28°21' W 015°41'4 8.8
2017-Jun-14 07:00N 28°19' W 015°37'4 9.0
2017-Jun-14 06:30N 28°18' W 015°32'4 8.9
2017-Jun-14 06:00N 28°16' W 015°27'5 9.1
2017-Jun-14 05:30N 28°15' W 015°22'4 8.9
2017-Jun-14 05:00N 28°13' W 015°17'4 8.8
2017-Jun-14 04:30N 28°12' W 015°13'4 8.9
2017-Jun-14 04:00N 28°11' W 015°08'4 8.9
2017-Jun-14 03:31N 28°09' W 015°03'5 9.0
2017-Jun-14 03:00N 28°08' W 014°58'5 9.0
2017-Jun-14 02:30N 28°07' W 014°53'4 9.0
2017-Jun-14 02:00N 28°06' W 014°48'5 9.1
2017-Jun-14 01:30N 28°04' W 014°43'5 9.0
2017-Jun-14 00:59N 28°03' W 014°38'5 9.3
2017-Jun-14 00:27N 28°01' W 014°33'15 9.8
2017-Jun-13 22:53N 28°01' W 014°16'4 9.9
2017-Jun-13 22:30N 28°03' W 014°12'510.1
2017-Jun-13 22:00N 28°06' W 014°07'510.3
2017-Jun-13 21:29N 28°08' W 014°02'6 9.9
2017-Jun-13 20:54N 28°11' W 013°56'  

Dump ship's entire track history